Flight Track Log - Related Links

Times and Time Zones

All times are in EDT time to prevent confusion due to time zone crossing. See the SWA864 flight status page for this flight to view local times or setup timezone preferences in your user account.

Time Position Orientation Groundspeed Altitude Reporting Facility
EDT Latitude Longitude Course Direction KTS MPH feet Rate Location/Type
Sat 09:28:12 AM 26.0750 -80.1344 84° East 163 188 1,000  Level Miami Center
Sat 09:28:48 AM 26.0778 -80.1044 84° East 162 186 2,000 1,922 Climbing Miami Center
Sat 09:29:55 AM 26.1164 -80.0592 46° Northeast 244 281 4,300 2,063 Climbing Miami Center
Sat 09:30:56 AM 26.1525 -80.1203 303° West 270 311 6,400 1,872 Climbing Miami Center
Sat 09:32:16 AM 26.1919 -80.2303 292° West 302 348 8,700 1,500 Climbing Miami Center
Sat 09:33:16 AM 26.2211 -80.3214 290° West 307 353 9,900 600 Climbing Miami Center
Sat 09:34:16 AM 26.2519 -80.4242 289° West 327 376 9,900 900 Level Miami Center
Sat 09:35:16 AM 26.2808 -80.5269 287° West 348 400 11,700 2,050 Climbing Miami Center
Sat 09:36:16 AM 26.3308 -80.6142 303° West 355 409 14,000 2,450 Climbing Miami Center
Sat 09:37:16 AM 26.4033 -80.7186 308° West 384 442 16,600 2,600 Climbing Miami Center
Sat 09:37:16 AM 26.4033 -80.7186 308° West 384 442 16,600 1,900 Level Miami Center
Sat 09:38:16 AM 26.4914 -80.7817 327° Northwest 408 470 18,500 1,900 Climbing Miami Center
Sat 09:38:16 AM 26.4914 -80.7817 327° Northwest 408 470 18,500 2,400 Level Miami Center
Sat 09:39:16 AM 26.5942 -80.8456 331° Northwest 422 486 20,900 2,400 Climbing Miami Center
Sat 09:39:16 AM 26.5942 -80.8456 331° Northwest 422 486 20,900 1,900 Level Miami Center
Sat 09:40:16 AM 26.6942 -80.9233 325° Northwest 434 499 22,800 1,900 Climbing Miami Center
Sat 09:40:16 AM 26.6942 -80.9233 325° Northwest 434 499 22,800 1,900 Level Miami Center
Sat 09:41:16 AM 26.7942 -81.0083 323° Northwest 439 505 24,700 1,900 Climbing Miami Center
Sat 09:41:16 AM 26.7942 -81.0083 323° Northwest 439 505 24,700 2,000 Level Miami Center
Sat 09:42:16 AM 26.9064 -81.1006 324° Northwest 451 519 26,700 2,000 Climbing Miami Center
Sat 09:42:16 AM 26.9064 -81.1006 324° Northwest 451 519 26,700 1,600 Level Miami Center
Sat 09:43:16 AM 27.0081 -81.1883 322° Northwest 460 529 28,300 1,600 Climbing Miami Center
Sat 09:43:16 AM 27.0081 -81.1883 322° Northwest 460 529 28,300 1,200 Level Miami Center
Sat 09:44:16 AM 27.1058 -81.2667 325° Northwest 467 537 29,500 1,200 Climbing Miami Center
Sat 09:44:16 AM 27.1058 -81.2667 325° Northwest 467 537 29,500 1,400 Level Miami Center
Sat 09:45:16 AM 27.2117 -81.3569 323° Northwest 472 543 30,900 1,400 Climbing Miami Center
Sat 09:45:16 AM 27.2117 -81.3569 323° Northwest 472 543 30,900 1,900 Level Miami Center
Sat 09:46:16 AM 27.3297 -81.4575 323° Northwest 478 550 32,800 1,900 Climbing Miami Center
Sat 09:46:16 AM 27.3297 -81.4575 323° Northwest 478 550 32,800 2,300 Level Miami Center
Sat 09:47:16 AM 27.4353 -81.5458 323° Northwest 478 550 35,100 2,300 Climbing Miami Center
Sat 09:47:16 AM 27.4353 -81.5458 323° Northwest 478 550 35,100 900 Level Miami Center
Sat 09:48:16 AM 27.5347 -81.6319 322° Northwest 464 534 36,000 900 Climbing Miami Center
Sat 09:48:16 AM 27.5347 -81.6319 322° Northwest 464 534 36,000  Level Miami Center
Sat 09:49:16 AM 27.6261 -81.7083 323° Northwest 458 527 36,000  Level Miami Center
Sat 09:49:16 AM 27.6261 -81.7083 323° Northwest 458 527 36,000  Level Miami Center
Sat 09:50:16 AM 27.7275 -81.7922 324° Northwest 458 527 36,000  Level Miami Center
Sat 09:50:16 AM 27.7275 -81.7922 324° Northwest 458 527 36,000  Level Miami Center
Sat 09:51:16 AM 27.8289 -81.8811 322° Northwest 463 533 36,000  Level Miami Center
Sat 09:51:16 AM 27.8289 -81.8811 322° Northwest 463 533 36,000  Level Miami Center
Sat 09:52:51 AM 28.0031 -82.0275 323° Northwest 458 527 36,000  Level Jacksonville Center
Sat 09:52:51 AM 28.0031 -82.0275 323° Northwest 458 527 36,000  Level Jacksonville Center
Sat 09:53:51 AM 28.0997 -82.1161 321° Northwest 452 520 36,000  Level Jacksonville Center
Sat 09:53:51 AM 28.0997 -82.1161 321° Northwest 452 520 36,000  Level Jacksonville Center
Sat 09:54:51 AM 28.2003 -82.2050 322° Northwest 452 520 36,000  Level Jacksonville Center
Sat 09:54:51 AM 28.2003 -82.2050 322° Northwest 452 520 36,000  Level Jacksonville Center
Sat 09:55:51 AM 28.2947 -82.2914 321° Northwest 452 520 36,000  Level Jacksonville Center
Sat 09:55:51 AM 28.2947 -82.2914 321° Northwest 452 520 36,000  Level Jacksonville Center
Sat 09:56:51 AM 28.3908 -82.3783 321° Northwest 452 520 36,000  Level Jacksonville Center
Sat 09:56:51 AM 28.3908 -82.3783 321° Northwest 452 520 36,000  Level Jacksonville Center
Sat 09:57:51 AM 28.4853 -82.4603 323° Northwest 447 514 36,000  Level Jacksonville Center
Sat 09:57:51 AM 28.4853 -82.4603 323° Northwest 447 514 36,000  Level Jacksonville Center
Sat 09:58:51 AM 28.5794 -82.5450 322° Northwest 442 509 36,000  Level Jacksonville Center
Sat 09:58:51 AM 28.5794 -82.5450 322° Northwest 442 509 36,000  Level Jacksonville Center
Sat 09:59:51 AM 28.6714 -82.6322 320° Northwest 437 503 36,000  Level Jacksonville Center
Sat 09:59:51 AM 28.6714 -82.6322 320° Northwest 437 503 36,000  Level Jacksonville Center
Sat 10:00:51 AM 28.7633 -82.7125 323° Northwest 426 490 36,000  Level Jacksonville Center
Sat 10:00:51 AM 28.7633 -82.7125 323° Northwest 426 490 36,000  Level Jacksonville Center
Sat 10:01:51 AM 28.8553 -82.7978 321° Northwest 426 490 36,000  Level Jacksonville Center
Sat 10:01:51 AM 28.8553 -82.7978 321° Northwest 426 490 36,000  Level Jacksonville Center
Sat 10:02:51 AM 28.9492 -82.8831 322° Northwest 426 490 36,000  Level Jacksonville Center
Sat 10:02:51 AM 28.9492 -82.8831 322° Northwest 426 490 36,000  Level Jacksonville Center
Sat 10:03:51 AM 29.0411 -82.9661 322° Northwest 426 490 36,000  Level Jacksonville Center
Sat 10:03:51 AM 29.0411 -82.9661 322° Northwest 426 490 36,000  Level Jacksonville Center
Sat 10:04:51 AM 29.1369 -83.0542 321° Northwest 426 490 36,000  Level Jacksonville Center
Sat 10:04:51 AM 29.1369 -83.0542 321° Northwest 426 490 36,000  Level Jacksonville Center
Sat 10:05:51 AM 29.2328 -83.1400 322° Northwest 431 496 36,000  Level Jacksonville Center
Sat 10:05:51 AM 29.2328 -83.1400 322° Northwest 431 496 36,000 1,100 Level Jacksonville Center
Sat 10:06:51 AM 29.3267 -83.2283 321° Northwest 431 496 37,100 1,100 Climbing Jacksonville Center
Sat 10:06:51 AM 29.3267 -83.2283 321° Northwest 431 496 37,100 900 Level Jacksonville Center
Sat 10:07:51 AM 29.4078 -83.3311 312° West 431 496 38,000 900 Climbing Jacksonville Center
Sat 10:07:51 AM 29.4078 -83.3311 312° West 431 496 38,000  Level Jacksonville Center
Sat 10:08:51 AM 29.4678 -83.4244 306° West 431 496 38,000  Level Jacksonville Center
Sat 10:08:51 AM 29.4678 -83.4244 306° West 431 496 38,000  Level Jacksonville Center
Sat 10:09:51 AM 29.5467 -83.5492 306° West 441 507 38,000  Level Jacksonville Center
Sat 10:09:51 AM 29.5467 -83.5492 306° West 441 507 38,000  Level Jacksonville Center
Sat 10:10:51 AM 29.6192 -83.6619 307° West 447 514 38,000  Level Jacksonville Center
Sat 10:10:51 AM 29.6192 -83.6619 307° West 447 514 38,000  Level Jacksonville Center
Sat 10:11:51 AM 29.6894 -83.7772 305° West 447 514 38,000  Level Jacksonville Center
Sat 10:11:51 AM 29.6894 -83.7772 305° West 447 514 38,000  Level Jacksonville Center
Sat 10:12:51 AM 29.7617 -83.8903 306° West 442 509 38,000  Level Jacksonville Center
Sat 10:12:51 AM 29.7617 -83.8903 306° West 442 509 38,000  Level Jacksonville Center
Sat 10:13:52 AM 29.8317 -84.0036 305° West 442 509 38,000  Level Jacksonville Center
Sat 10:13:52 AM 29.8317 -84.0036 305° West 442 509 38,000  Level Jacksonville Center
Sat 10:14:51 AM 29.9036 -84.1169 306° West 442 509 38,000  Level Jacksonville Center
Sat 10:14:51 AM 29.9036 -84.1169 306° West 442 509 38,000  Level Jacksonville Center
Sat 10:15:51 AM 29.9714 -84.2281 305° West 436 502 38,000  Level Jacksonville Center
Sat 10:15:51 AM 29.9714 -84.2281 305° West 436 502 38,000  Level Jacksonville Center
Sat 10:16:51 AM 30.0411 -84.3417 305° West 436 502 38,000  Level Jacksonville Center
Sat 10:16:51 AM 30.0411 -84.3417 305° West 436 502 38,000  Level Jacksonville Center
Sat 10:17:51 AM 30.1128 -84.4558 306° West 436 502 38,000  Level Jacksonville Center
Sat 10:17:51 AM 30.1128 -84.4558 306° West 436 502 38,000  Level Jacksonville Center
Sat 10:18:51 AM 30.1825 -84.5697 305° West 436 502 38,000  Level Jacksonville Center
Sat 10:18:51 AM 30.1825 -84.5697 305° West 436 502 38,000  Level Jacksonville Center
Sat 10:19:51 AM 30.2519 -84.6792 306° West 431 496 38,000  Level Jacksonville Center
Sat 10:19:51 AM 30.2519 -84.6792 306° West 431 496 38,000  Level Jacksonville Center
Sat 10:20:51 AM 30.3192 -84.7911 305° West 431 496 38,000  Level Jacksonville Center
Sat 10:20:51 AM 30.3192 -84.7911 305° West 431 496 38,000  Level Jacksonville Center
Sat 10:21:51 AM 30.3864 -84.9058 304° West 431 496 38,000  Level Jacksonville Center
Sat 10:21:51 AM 30.3864 -84.9058 304° West 431 496 38,000  Level Jacksonville Center
Sat 10:22:52 AM 30.4575 -85.0181 306° West 431 496 38,000  Level Jacksonville Center
Sat 10:22:52 AM 30.4575 -85.0181 306° West 431 496 38,000  Level Jacksonville Center
Sat 10:23:51 AM 30.5267 -85.1306 306° West 431 496 38,000  Level Jacksonville Center
Sat 10:23:51 AM 30.5267 -85.1306 306° West 431 496 38,000  Level Jacksonville Center
Sat 10:24:51 AM 30.5956 -85.2456 305° West 431 496 38,000  Level Jacksonville Center
Sat 10:24:51 AM 30.5956 -85.2456 305° West 431 496 38,000  Level Jacksonville Center
Sat 10:25:51 AM 30.6664 -85.3608 306° West 431 496 38,000  Level Jacksonville Center
Sat 10:25:51 AM 30.6664 -85.3608 306° West 431 496 38,000  Level Jacksonville Center
Sat 10:26:51 AM 30.7331 -85.4761 304° West 431 496 38,000  Level Jacksonville Center
Sat 10:26:51 AM 30.7331 -85.4761 304° West 431 496 38,000  Level Jacksonville Center
Sat 10:27:51 AM 30.8017 -85.5939 304° West 431 496 38,000  Level Jacksonville Center
Sat 10:27:51 AM 30.8017 -85.5939 304° West 431 496 38,000  Level Jacksonville Center
Sat 10:28:51 AM 30.8722 -85.7097 305° West 437 503 38,000  Level Jacksonville Center
Sat 10:28:51 AM 30.8722 -85.7097 305° West 437 503 38,000  Level Jacksonville Center
Sat 10:29:51 AM 30.9406 -85.8281 304° West 437 503 38,000  Level Jacksonville Center
Sat 10:29:51 AM 30.9406 -85.8281 304° West 437 503 38,000  Level Jacksonville Center
Sat 10:30:51 AM 31.0089 -85.9417 305° West 437 503 38,000  Level Jacksonville Center
Sat 10:30:51 AM 31.0089 -85.9417 305° West 437 503 38,000  Level Jacksonville Center
Sat 10:32:54 AM 31.1481 -86.1764 305° West 446 513 38,000  Level Atlanta Center
Sat 10:32:54 AM 31.1481 -86.1764 305° West 446 513 38,000  Level Atlanta Center
Sat 10:33:54 AM 31.2147 -86.2894 305° West 446 513 38,000  Level Atlanta Center
Sat 10:33:54 AM 31.2147 -86.2894 305° West 446 513 38,000  Level Atlanta Center
Sat 10:34:54 AM 31.2814 -86.4078 303° West 446 513 38,000  Level Atlanta Center
Sat 10:34:54 AM 31.2814 -86.4078 303° West 446 513 38,000  Level Atlanta Center
Sat 10:35:54 AM 31.3503 -86.5214 305° West 441 507 38,000  Level Atlanta Center
Sat 10:35:54 AM 31.3503 -86.5214 305° West 441 507 38,000  Level Atlanta Center
Sat 10:36:54 AM 31.4169 -86.6328 305° West 436 502 38,000  Level Atlanta Center
Sat 10:36:54 AM 31.4169 -86.6328 305° West 436 502 38,000  Level Atlanta Center
Sat 10:37:54 AM 31.4853 -86.7517 304° West 436 502 38,000  Level Atlanta Center
Sat 10:37:54 AM 31.4853 -86.7517 304° West 436 502 38,000  Level Atlanta Center
Sat 10:38:54 AM 31.5514 -86.8681 304° West 436 502 38,000  Level Atlanta Center
Sat 10:38:54 AM 31.5514 -86.8681 304° West 436 502 38,000  Level Atlanta Center
Sat 10:39:54 AM 31.6217 -86.9850 305° West 436 502 38,000  Level Atlanta Center
Sat 10:39:54 AM 31.6217 -86.9850 305° West 436 502 38,000  Level Atlanta Center
Sat 10:40:54 AM 31.6861 -87.0894 306° West 441 507 38,000  Level Atlanta Center
Sat 10:40:54 AM 31.6861 -87.0894 306° West 441 507 38,000  Level Atlanta Center
Sat 10:41:54 AM 31.7536 -87.2211 301° West 436 502 38,000  Level Atlanta Center
Sat 10:41:54 AM 31.7536 -87.2211 301° West 436 502 38,000  Level Atlanta Center
Sat 10:42:54 AM 31.8358 -87.3486 307° West 436 502 38,000  Level Atlanta Center
Sat 10:42:54 AM 31.8358 -87.3486 307° West 436 502 38,000  Level Atlanta Center
Sat 10:44:38 AM 31.9514 -87.5567 303° West 458 527 38,000  Level Memphis Center
Sat 10:44:38 AM 31.9514 -87.5567 303° West 458 527 38,000  Level Memphis Center
Sat 10:45:38 AM 32.0167 -87.6769 303° West 452 520 38,000  Level Memphis Center
Sat 10:45:38 AM 32.0167 -87.6769 303° West 452 520 38,000  Level Memphis Center
Sat 10:46:38 AM 32.0839 -87.7953 304° West 447 514 38,000  Level Memphis Center
Sat 10:46:38 AM 32.0839 -87.7953 304° West 447 514 38,000  Level Memphis Center
Sat 10:47:38 AM 32.1511 -87.9136 304° West 447 514 38,000  Level Memphis Center
Sat 10:47:38 AM 32.1511 -87.9136 304° West 447 514 38,000  Level Memphis Center
Sat 10:48:38 AM 32.2181 -88.0344 303° West 447 514 38,000  Level Memphis Center
Sat 10:48:38 AM 32.2181 -88.0344 303° West 447 514 38,000  Level Memphis Center
Sat 10:49:38 AM 32.2850 -88.1531 304° West 447 514 38,000  Level Memphis Center
Sat 10:49:38 AM 32.2850 -88.1531 304° West 447 514 38,000  Level Memphis Center
Sat 10:50:38 AM 32.3517 -88.2719 304° West 447 514 38,000  Level Memphis Center
Sat 10:50:38 AM 32.3517 -88.2719 304° West 447 514 38,000  Level Memphis Center
Sat 10:51:38 AM 32.4183 -88.3958 303° West 447 514 38,000  Level Memphis Center
Sat 10:51:38 AM 32.4183 -88.3958 303° West 447 514 38,000  Level Memphis Center
Sat 10:52:38 AM 32.4786 -88.5006 304° West 447 514 38,000  Level Memphis Center
Sat 10:52:38 AM 32.4786 -88.5006 304° West 447 514 38,000  Level Memphis Center
Sat 10:53:38 AM 32.5469 -88.6222 304° West 442 509 38,000  Level Memphis Center
Sat 10:53:38 AM 32.5469 -88.6222 304° West 442 509 38,000  Level Memphis Center
Sat 10:54:38 AM 32.6156 -88.7467 303° West 442 509 38,000  Level Memphis Center
Sat 10:54:38 AM 32.6156 -88.7467 303° West 442 509 38,000  Level Memphis Center
Sat 10:55:38 AM 32.6903 -88.8811 303° West 450 518 38,000  Level Memphis Center
Sat 10:55:38 AM 32.6903 -88.8811 303° West 450 518 38,000  Level Memphis Center
Sat 10:56:38 AM 32.7564 -89.0036 303° West 450 518 38,000  Level Memphis Center
Sat 10:56:38 AM 32.7564 -89.0036 303° West 450 518 38,000  Level Memphis Center
Sat 10:57:38 AM 32.8244 -89.1286 303° West 450 518 38,000  Level Memphis Center
Sat 10:57:38 AM 32.8244 -89.1286 303° West 450 518 38,000  Level Memphis Center
Sat 10:58:38 AM 32.8925 -89.2489 304° West 450 518 38,000  Level Memphis Center
Sat 10:58:38 AM 32.8925 -89.2489 304° West 450 518 38,000  Level Memphis Center
Sat 10:59:38 AM 32.9603 -89.3767 302° West 450 518 38,000  Level Memphis Center
Sat 10:59:38 AM 32.9603 -89.3767 302° West 450 518 38,000  Level Memphis Center
Sat 11:00:38 AM 33.0281 -89.5000 303° West 450 518 38,000  Level Memphis Center
Sat 11:00:38 AM 33.0281 -89.5000 303° West 450 518 38,000  Level Memphis Center
Sat 11:01:38 AM 33.0956 -89.6233 303° West 450 518 38,000  Level Memphis Center
Sat 11:01:38 AM 33.0956 -89.6233 303° West 450 518 38,000  Level Memphis Center
Sat 11:02:38 AM 33.1631 -89.7492 303° West 450 518 38,000  Level Memphis Center
Sat 11:02:38 AM 33.1631 -89.7492 303° West 450 518 38,000  Level Memphis Center
Sat 11:03:38 AM 33.2219 -89.8631 302° West 450 518 38,000  Level Memphis Center
Sat 11:03:38 AM 33.2219 -89.8631 302° West 450 518 38,000  Level Memphis Center
Sat 11:04:38 AM 33.2872 -89.9869 302° West 450 518 38,000  Level Memphis Center
Sat 11:04:38 AM 33.2872 -89.9869 302° West 450 518 38,000  Level Memphis Center
Sat 11:05:38 AM 33.3522 -90.1111 302° West 450 518 38,000  Level Memphis Center
Sat 11:05:38 AM 33.3522 -90.1111 302° West 450 518 38,000  Level Memphis Center
Sat 11:06:38 AM 33.4172 -90.2328 303° West 450 518 38,000  Level Memphis Center
Sat 11:06:38 AM 33.4172 -90.2328 303° West 450 518 38,000  Level Memphis Center
Sat 11:07:38 AM 33.4797 -90.3547 302° West 450 518 38,000  Level Memphis Center
Sat 11:07:38 AM 33.4797 -90.3547 302° West 450 518 38,000  Level Memphis Center
Sat 11:08:38 AM 33.5444 -90.4769 302° West 445 512 38,000  Level Memphis Center
Sat 11:08:38 AM 33.5444 -90.4769 302° West 445 512 38,000  Level Memphis Center
Sat 11:09:38 AM 33.6069 -90.5992 302° West 445 512 38,000  Level Memphis Center
Sat 11:09:38 AM 33.6069 -90.5992 302° West 445 512 38,000  Level Memphis Center
Sat 11:10:38 AM 33.6733 -90.7192 304° West 439 505 38,000  Level Memphis Center
Sat 11:10:38 AM 33.6733 -90.7192 304° West 439 505 38,000  Level Memphis Center
Sat 11:11:38 AM 33.7378 -90.8442 302° West 439 505 38,000  Level Memphis Center
Sat 11:11:38 AM 33.7378 -90.8442 302° West 439 505 38,000  Level Memphis Center
Sat 11:12:38 AM 33.7997 -90.9647 302° West 434 499 38,000  Level Memphis Center
Sat 11:12:38 AM 33.7997 -90.9647 302° West 434 499 38,000  Level Memphis Center
Sat 11:13:38 AM 33.8617 -91.0875 301° West 434 499 38,000  Level Memphis Center
Sat 11:13:38 AM 33.8617 -91.0875 301° West 434 499 38,000  Level Memphis Center
Sat 11:14:38 AM 33.9278 -91.2108 303° West 434 499 38,000  Level Memphis Center
Sat 11:14:38 AM 33.9278 -91.2108 303° West 434 499 38,000  Level Memphis Center
Sat 11:15:38 AM 33.9894 -91.3367 301° West 431 496 38,000  Level Memphis Center
Sat 11:15:38 AM 33.9894 -91.3367 301° West 431 496 38,000  Level Memphis Center
Sat 11:16:38 AM 34.0592 -91.4678 303° West 431 496 38,000  Level Memphis Center
Sat 11:16:38 AM 34.0592 -91.4678 303° West 431 496 38,000  Level Memphis Center
Sat 11:17:38 AM 34.1228 -91.5967 301° West 437 503 38,000  Level Memphis Center
Sat 11:17:38 AM 34.1228 -91.5967 301° West 437 503 38,000  Level Memphis Center
Sat 11:18:38 AM 34.1883 -91.7181 303° West 437 503 38,000  Level Memphis Center
Sat 11:18:38 AM 34.1883 -91.7181 303° West 437 503 38,000  Level Memphis Center
Sat 11:19:38 AM 34.2456 -91.8272 302° West 432 497 38,000  Level Memphis Center
Sat 11:19:38 AM 34.2456 -91.8272 302° West 432 497 38,000 50 Level Memphis Center
Sat 11:25:38 AM 34.6122 -92.5650 301° West 432 497 38,300 143 Climbing Memphis Center
Sat 11:26:38 AM 34.6728 -92.6878 301° West 432 497 39,000 350 Climbing Memphis Center
Sat 11:27:38 AM 34.7350 -92.8136 301° West 432 497 39,000  Level Memphis Center
Sat 11:28:38 AM 34.7950 -92.9367 301° West 432 497 39,000  Level Memphis Center
Sat 11:29:38 AM 34.8569 -93.0650 300° West 432 497 39,000  Level Memphis Center
Sat 11:30:38 AM 34.9169 -93.1886 301° West 432 497 39,000  Level Memphis Center
Sat 11:31:38 AM 34.9786 -93.3147 301° West 432 497 39,000  Level Memphis Center
Sat 11:32:38 AM 35.0442 -93.4514 300° West 432 497 39,000  Level Memphis Center
Sat 11:33:38 AM 35.1056 -93.5781 301° West 432 497 39,000  Level Memphis Center
Sat 11:34:38 AM 35.1500 -93.7092 293° West 427 491 39,000  Level Memphis Center
Sat 11:35:38 AM 35.1839 -93.8478 287° West 427 491 39,000  Level Memphis Center
Sat 11:36:38 AM 35.2175 -93.9889 286° West 427 491 39,000  Level Memphis Center
Sat 11:37:38 AM 35.2531 -94.1228 288° West 422 486 39,000  Level Memphis Center
Sat 11:38:38 AM 35.3142 -94.2425 302° West 416 479 39,000  Level Memphis Center
Sat 11:39:38 AM 35.3750 -94.3600 302° West 410 472 39,000  Level Memphis Center
Sat 11:40:38 AM 35.4336 -94.4775 301° West 410 472 39,000 -361 Level Memphis Center
Sat 11:42:24 AM 35.5411 -94.6850 303° West 408 470 38,000 -357 Descending Kansas City Center
Sat 11:43:26 AM 35.6000 -94.8036 301° West 408 470 38,000  Level Kansas City Center
Sat 11:44:28 AM 35.6589 -94.9250 301° West 409 471 38,000  Level Kansas City Center
Sat 11:45:30 AM 35.7186 -95.0461 301° West 412 474 38,000  Level Kansas City Center
Sat 11:46:32 AM 35.7794 -95.1600 303° West 402 463 38,000  Level Kansas City Center
Sat 11:47:34 AM 35.8372 -95.2789 301° West 400 460 38,000  Level Kansas City Center
Sat 11:48:36 AM 35.8964 -95.3997 301° West 406 467 38,000  Level Kansas City Center
Sat 11:49:38 AM 35.9675 -95.5433 301° West 406 467 38,000  Level Kansas City Center
Sat 11:50:27 AM 36.0158 -95.6400 302° West 408 470 38,000  Level Kansas City Center
Sat 11:51:29 AM 36.0736 -95.7611 301° West 407 468 38,000  Level Kansas City Center
Sat 11:52:31 AM 36.1328 -95.8808 301° West 406 467 38,000  Level Kansas City Center
Sat 11:53:33 AM 36.1914 -95.9994 302° West 403 464 38,000  Level Kansas City Center
Sat 11:54:35 AM 36.2500 -96.1175 302° West 401 461 38,000  Level Kansas City Center
Sat 11:55:37 AM 36.3089 -96.2381 301° West 404 465 38,000  Level Kansas City Center
Sat 11:56:39 AM 36.3667 -96.3589 301° West 405 466 38,000  Level Kansas City Center
Sat 11:57:41 AM 36.4256 -96.4814 301° West 409 471 38,000  Level Kansas City Center
Sat 11:58:43 AM 36.4961 -96.6294 301° West 412 474 38,000  Level Kansas City Center
Sat 11:59:45 AM 36.5547 -96.7528 301° West 414 476 38,000  Level Kansas City Center
Sat 12:00:47 PM 36.6133 -96.8761 301° West 414 476 38,000  Level Kansas City Center
Sat 12:01:49 PM 36.6725 -96.9997 301° West 413 475 38,000  Level Kansas City Center
Sat 12:02:51 PM 36.7372 -97.1389 300° West 414 476 38,000  Level Kansas City Center
Sat 12:03:53 PM 36.7869 -97.2664 296° West 411 473 38,000  Level Kansas City Center
Sat 12:04:55 PM 36.8344 -97.4006 294° West 418 481 38,000  Level Kansas City Center
Sat 12:05:57 PM 36.8836 -97.5378 294° West 418 481 38,000  Level Kansas City Center
Sat 12:06:58 PM 36.9303 -97.6706 294° West 417 480 38,000  Level Kansas City Center
Sat 12:08:00 PM 36.9767 -97.8033 294° West 416 479 38,000  Level Kansas City Center
Sat 12:09:02 PM 37.0236 -97.9353 294° West 415 478 38,000  Level Kansas City Center
Sat 12:10:04 PM 37.0703 -98.0678 294° West 415 478 38,000  Level Kansas City Center
Sat 12:11:06 PM 37.1172 -98.2019 294° West 416 479 38,000  Level Kansas City Center
Sat 12:12:08 PM 37.1736 -98.3642 294° West 420 483 38,000  Level Kansas City Center
Sat 12:13:09 PM 37.2217 -98.5003 294° West 422 486 38,000  Level Kansas City Center
Sat 12:14:11 PM 37.2678 -98.6361 293° West 422 486 38,000  Level Kansas City Center
Sat 12:15:13 PM 37.3150 -98.7728 294° West 424 488 38,000  Level Kansas City Center
Sat 12:16:15 PM 37.3614 -98.9075 293° West 422 486 38,000  Level Kansas City Center
Sat 12:17:17 PM 37.4067 -99.0397 293° West 416 479 38,000  Level Kansas City Center
Sat 12:18:18 PM 37.4508 -99.1719 293° West 411 473 38,000  Level Kansas City Center
Sat 12:19:20 PM 37.4950 -99.3050 293° West 411 473 38,000  Level Kansas City Center
Sat 12:20:22 PM 37.5508 -99.4678 293° West 414 476 38,000  Level Kansas City Center
Sat 12:21:24 PM 37.5944 -99.5964 293° West 416 479 38,000  Level Kansas City Center
Sat 12:22:26 PM 37.6381 -99.7267 293° West 420 483 38,000  Level Kansas City Center
Sat 12:23:27 PM 37.6886 -99.8797 293° West 424 488 38,000  Level Kansas City Center
Sat 12:24:29 PM 37.7322 -100.0100 293° West 423 487 38,000  Level Kansas City Center
Sat 12:25:31 PM 37.7811 -100.1617 292° West 420 483 38,000  Level Kansas City Center
Sat 12:26:33 PM 37.8250 -100.2922 293° West 421 484 38,000  Level Kansas City Center
Sat 12:27:35 PM 37.8747 -100.4419 293° West 418 481 38,000  Level Kansas City Center
Sat 12:28:36 PM 37.9167 -100.5719 292° West 418 481 38,000  Level Kansas City Center
Sat 12:29:38 PM 37.9658 -100.7239 292° West 420 483 38,000  Level Kansas City Center
Sat 12:30:40 PM 38.0078 -100.8542 292° West 420 483 38,000  Level Kansas City Center
Sat 12:31:42 PM 38.0556 -101.0075 292° West 422 486 38,000  Level Kansas City Center
Sat 12:32:44 PM 38.0972 -101.1392 292° West 423 487 38,000  Level Kansas City Center
Sat 12:33:23 PM 38.1253 -101.2256 292° West 423 487 38,000  Level Denver Center
Sat 12:34:25 PM 38.1736 -101.3811 292° West 424 488 38,000  Level Denver Center
Sat 12:35:27 PM 38.2258 -101.5069 298° West 423 487 38,000  Level Denver Center
Sat 12:36:29 PM 38.2953 -101.6469 302° West 420 483 38,000  Level Denver Center
Sat 12:37:31 PM 38.3544 -101.7661 302° West 417 480 38,000 -484 Level Denver Center
Sat 12:38:33 PM 38.4225 -101.9053 302° West 414 476 37,000 -919 Descending Denver Center
Sat 12:39:35 PM 38.4808 -102.0228 302° West 412 474 36,100 -968 Descending Denver Center
Sat 12:40:37 PM 38.5492 -102.1642 302° West 418 481 35,000 -968 Descending Denver Center
Sat 12:41:39 PM 38.6100 -102.2875 302° West 428 493 34,100 -484 Descending Denver Center
Sat 12:42:41 PM 38.6811 -102.4300 303° West 427 491 34,000 -48 Descending Denver Center
Sat 12:43:44 PM 38.7392 -102.5519 301° West 422 486 34,000  Level Denver Center
Sat 12:44:46 PM 38.8092 -102.6958 302° West 426 490 34,000  Level Denver Center
Sat 12:45:48 PM 38.8697 -102.8203 302° West 430 495 34,000 -48 Level Denver Center
Sat 12:46:50 PM 38.9314 -102.9503 301° West 428 493 33,900 -1,306 Descending Denver Center
Sat 12:47:52 PM 38.9903 -103.0753 301° West 411 473 31,300 -2,323 Descending Denver Center
Sat 12:48:54 PM 39.0511 -103.2033 301° West 420 483 29,100 -2,371 Descending Denver Center
Sat 12:49:56 PM 39.1233 -103.3533 302° West 414 476 26,400 -2,371 Descending Denver Center
Sat 12:50:58 PM 39.1811 -103.4750 302° West 403 464 24,200 -2,032 Descending Denver Center
Sat 12:52:00 PM 39.2364 -103.5925 301° West 390 449 22,200 -1,984 Descending Denver Center
Sat 12:53:02 PM 39.2897 -103.7083 301° West 379 436 20,100 -1,935 Descending Denver Center
Sat 12:54:04 PM 39.3417 -103.8197 301° West 367 422 18,200 -1,500 Descending Denver Center
Sat 12:55:06 PM 39.3953 -103.9442 299° West 350 403 17,000 -1,403 Descending Denver Center
Sat 12:56:08 PM 39.4014 -104.0603 274° West 324 373 15,300 -1,597 Descending Denver Center
Sat 12:57:10 PM 39.4072 -104.1789 274° West 311 358 13,700 -1,210 Descending Denver Center
Sat 12:58:12 PM 39.4300 -104.2789 286° West 293 337 12,800 -1,210 Descending Denver Center
Sat 12:59:14 PM 39.4731 -104.3806 299° West 296 341 11,200 -1,403 Descending Denver Center
Sat 01:00:16 PM 39.5128 -104.4750 299° West 298 343 9,900 -1,403 Descending Denver Center
Sat 01:01:18 PM 39.5736 -104.5506 316° Northwest 296 341 8,300 -1,008 Descending Denver Center
Sat 01:02:21 PM 39.6419 -104.5856 338° Northwest 264 304 7,800 -528 Descending Denver Center
Sat 01:03:23 PM 39.7036 -104.6192 337° Northwest 236 272 7,200 -484 Descending Denver Center
Sat 01:04:25 PM 39.7572 -104.6439 340° North 195 224 6,800 -629 Descending Denver Center
Sat 01:05:27 PM 39.8061 -104.6425 North 174 200 5,900 -726 Descending Denver Center
Sat 01:06:29 PM 39.8492 -104.6419 North 148 170 5,300 -581 Descending Denver Center
Sat 01:08:00 PM 39.8500 -104.6667 North  Level FlightAware Approximate
Sat 01:15:00 PM 39.8617 -104.6732 North  Level Estimated
Sat 01:16:00 PM 39.8617 -104.6732 North  Level Estimated

Login

Don't have an account? Register now (free) for customized features, flight alerts, and more!